Time;durP1;ratioP1;P1;durP2;ratioP2;P2;SDS_P1;SDS_P2;PMS_P1;PMS_P2;Temp;Humidity;BMP_temperature;BMP_pressure;BME280_temperature;BME280_humidity;BME280_pressure;Samples;Min_cycle;Max_cycle;Signal;HPM_P1;HPM_P2
2023/01/27 00:01:43;;;;;;;38.20;23.83;;;2.10;99.90;;;;;;5046329;28;20717;-73
2023/01/27 00:04:28;;;;;;;44.35;22.90;;;2.20;99.90;;;;;;5044601;28;20711;-73
2023/01/27 00:07:14;;;;;;;42.63;23.63;;;2.20;99.90;;;;;;5048228;28;20335;-73
2023/01/27 00:09:59;;;;;;;44.65;24.63;;;2.20;99.90;;;;;;5048001;28;20225;-74
2023/01/27 00:15:51;;;;;;;42.63;22.95;;;2.30;99.90;;;;;;5045783;28;20199;-73
2023/01/27 00:18:38;;;;;;;43.50;23.60;;;2.20;99.90;;;;;;5041328;28;20228;-72
2023/01/27 00:24:35;;;;;;;37.97;21.85;;;2.20;99.90;;;;;;5043232;28;20259;-73
2023/01/27 00:27:21;;;;;;;42.13;24.98;;;2.30;99.90;;;;;;5046658;28;20201;-73
2023/01/27 00:30:09;;;;;;;45.53;25.88;;;2.30;99.90;;;;;;5048454;28;20688;-73
2023/01/27 00:36:00;;;;;;;55.13;27.50;;;2.30;99.90;;;;;;5044346;28;20266;-74
2023/01/27 00:38:46;;;;;;;52.00;29.70;;;2.30;99.90;;;;;;5047512;28;20284;-73
2023/01/27 00:41:32;;;;;;;53.15;28.05;;;2.20;99.90;;;;;;5049902;28;20220;-73
2023/01/27 00:44:18;;;;;;;46.70;27.80;;;2.30;99.90;;;;;;5050334;28;20205;-73
2023/01/27 00:47:03;;;;;;;50.58;28.50;;;2.30;99.90;;;;;;5046761;28;20570;-73
2023/01/27 00:49:49;;;;;;;57.55;30.40;;;2.30;99.90;;;;;;5042615;28;20275;-73
2023/01/27 00:52:36;;;;;;;54.72;29.80;;;2.40;99.90;;;;;;5043593;28;20268;-73
2023/01/27 00:55:22;;;;;;;49.10;27.70;;;2.40;99.90;;;;;;5048214;28;20205;-73
2023/01/27 00:58:07;;;;;;;51.92;27.42;;;2.40;99.90;;;;;;5051299;28;20344;-73
2023/01/27 01:00:54;;;;;;;54.10;27.52;;;2.40;99.90;;;;;;5046548;28;20213;-74
2023/01/27 01:03:40;;;;;;;58.30;27.13;;;2.40;99.90;;;;;;5046399;28;20220;-74
2023/01/27 01:06:26;;;;;;;52.92;27.25;;;2.40;99.90;;;;;;5051145;28;20221;-73
2023/01/27 01:09:13;;;;;;;50.83;25.50;;;2.40;99.90;;;;;;5048152;28;20220;-73
2023/01/27 01:11:58;;;;;;;52.70;28.50;;;2.40;99.90;;;;;;5044049;28;20572;-72
2023/01/27 01:14:44;;;;;;;46.45;26.98;;;2.40;99.90;;;;;;5047674;28;20212;-74
2023/01/27 01:17:29;;;;;;;49.00;27.75;;;2.50;99.90;;;;;;5047342;28;20193;-74
2023/01/27 01:20:15;;;;;;;49.80;27.33;;;2.50;99.90;;;;;;5053254;28;20224;-74
2023/01/27 01:23:01;;;;;;;49.60;24.98;;;2.50;99.90;;;;;;5047932;28;20587;-73
2023/01/27 01:25:54;;;;;;;50.95;28.30;;;2.40;99.90;;;;;;5051879;28;20212;-73
2023/01/27 01:28:40;;;;;;;47.60;26.38;;;2.50;99.90;;;;;;5040777;28;20413;-73
2023/01/27 01:31:25;;;;;;;50.95;27.88;;;2.50;99.90;;;;;;5042008;28;20239;-73
2023/01/27 01:34:11;;;;;;;46.92;26.05;;;2.60;99.90;;;;;;5045999;28;20657;-71
2023/01/27 01:36:57;;;;;;;48.40;25.73;;;2.50;99.90;;;;;;5051781;28;20575;-74
2023/01/27 01:39:43;;;;;;;52.40;25.35;;;2.50;99.90;;;;;;5048396;28;20232;-74
2023/01/27 01:43:01;;;;;;;44.38;25.02;;;2.50;99.90;;;;;;5044881;28;20226;-74
2023/01/27 01:45:50;;;;;;;51.15;26.85;;;2.50;99.90;;;;;;5047625;28;20338;-75
2023/01/27 01:48:41;;;;;;;44.72;26.13;;;2.40;99.90;;;;;;5048249;28;20283;-71
2023/01/27 01:51:31;;;;;;;45.20;24.50;;;2.40;99.90;;;;;;5048784;28;20339;-75
2023/01/27 01:54:19;;;;;;;49.63;27.40;;;2.30;99.90;;;;;;5050088;28;20283;-75
2023/01/27 01:57:09;;;;;;;51.97;26.58;;;2.40;99.90;;;;;;5050574;28;20237;-75
2023/01/27 01:59:58;;;;;;;51.80;26.08;;;2.40;99.90;;;;;;5049093;28;20586;-74
2023/01/27 02:02:46;;;;;;;44.08;24.50;;;2.40;99.90;;;;;;5048610;28;20298;-74
2023/01/27 02:05:36;;;;;;;53.28;25.48;;;2.30;99.90;;;;;;5045785;28;20209;-74
2023/01/27 02:08:25;;;;;;;57.67;26.70;;;2.40;99.90;;;;;;5045841;28;20248;-74
2023/01/27 02:11:11;;;;;;;56.55;26.40;;;2.40;99.90;;;;;;5042938;28;20204;-74
2023/01/27 02:14:01;;;;;;;42.88;25.10;;;2.40;99.90;;;;;;5047846;28;20669;-74
2023/01/27 02:16:47;;;;;;;48.10;24.42;;;2.30;99.90;;;;;;5043575;28;20205;-73
2023/01/27 02:19:46;;;;;;;49.88;24.60;;;2.30;99.90;;;;;;5048301;28;20572;-74
2023/01/27 02:22:43;;;;;;;52.30;26.98;;;2.30;99.90;;;;;;5048306;28;20220;-74
2023/01/27 02:25:40;;;;;;;54.72;23.85;;;2.30;99.90;;;;;;5047111;28;20320;-73
2023/01/27 02:28:28;;;;;;;52.85;25.17;;;2.20;99.90;;;;;;5048439;28;20779;-74
2023/01/27 02:31:14;;;;;;;43.53;21.75;;;2.30;99.90;;;;;;5042864;28;20209;-75
2023/01/27 02:34:03;;;;;;;48.67;23.17;;;2.30;99.90;;;;;;5042375;28;20572;-75
2023/01/27 02:36:52;;;;;;;40.08;20.63;;;2.30;99.90;;;;;;5044395;28;20299;-75
2023/01/27 02:39:42;;;;;;;49.72;25.08;;;2.30;99.90;;;;;;5047513;28;20228;-74
2023/01/27 02:42:29;;;;;;;46.53;23.58;;;2.40;99.90;;;;;;5043160;28;20339;-75
2023/01/27 02:45:15;;;;;;;46.78;24.88;;;2.40;99.90;;;;;;5044885;28;20204;-75
2023/01/27 02:48:00;;;;;;;50.70;24.27;;;2.40;99.90;;;;;;5050462;28;20209;-75
2023/01/27 02:50:46;;;;;;;46.25;24.30;;;2.40;99.90;;;;;;5037940;28;20205;-75
2023/01/27 02:53:32;;;;;;;47.00;24.48;;;2.30;99.90;;;;;;5045106;28;20220;-75
2023/01/27 02:56:18;;;;;;;53.60;25.38;;;2.40;99.90;;;;;;5047215;28;20319;-75
2023/01/27 02:59:05;;;;;;;44.35;22.60;;;2.40;99.90;;;;;;5044284;28;20224;-74
2023/01/27 03:01:51;;;;;;;44.50;20.63;;;2.50;99.90;;;;;;5045999;28;20336;-75
2023/01/27 03:04:37;;;;;;;40.20;20.50;;;2.50;99.90;;;;;;5046447;28;20204;-75
2023/01/27 03:07:23;;;;;;;52.28;24.90;;;2.50;99.90;;;;;;5043497;28;20225;-75
2023/01/27 03:10:09;;;;;;;46.67;21.55;;;2.50;99.90;;;;;;5043480;28;20713;-74
2023/01/27 03:12:55;;;;;;;48.78;20.73;;;2.50;99.90;;;;;;5043924;28;20251;-74
2023/01/27 03:18:49;;;;;;;40.33;21.15;;;2.60;99.90;;;;;;5046757;28;20240;-73
2023/01/27 03:21:34;;;;;;;39.20;19.08;;;2.60;99.90;;;;;;5045885;28;20205;-75
2023/01/27 03:24:20;;;;;;;34.05;18.48;;;2.60;99.90;;;;;;5048708;28;20682;-75
2023/01/27 03:27:05;;;;;;;45.13;19.85;;;2.60;99.90;;;;;;5047907;28;20247;-74
2023/01/27 03:29:57;;;;;;;40.67;18.98;;;2.50;99.90;;;;;;5042387;28;20337;-73
2023/01/27 03:32:46;;;;;;;37.13;18.50;;;2.60;99.90;;;;;;5046385;28;20193;-73
2023/01/27 03:35:38;;;;;;;45.53;19.85;;;2.60;99.90;;;;;;5047952;28;20204;-73
2023/01/27 03:47:33;;;;;;;32.35;16.02;;;2.60;99.90;;;;;;5047868;28;20266;-73
2023/01/27 03:50:29;;;;;;;28.65;16.58;;;2.70;99.90;;;;;;5042907;28;20741;-73
2023/01/27 03:53:15;;;;;;;33.53;17.75;;;2.60;99.90;;;;;;5045916;28;20640;-72
2023/01/27 03:56:01;;;;;;;32.17;18.15;;;2.60;99.90;;;;;;5045805;28;20246;-73
2023/01/27 03:58:49;;;;;;;29.58;16.33;;;2.60;99.90;;;;;;5037956;28;20228;-73
2023/01/27 04:01:34;;;;;;;28.27;16.33;;;2.60;99.90;;;;;;5048906;28;20560;-74
2023/01/27 04:07:24;;;;;;;26.17;15.20;;;2.60;99.90;;;;;;5046863;28;20615;-73
2023/01/27 04:10:11;;;;;;;27.95;14.65;;;2.60;99.90;;;;;;5047537;28;20214;-73
2023/01/27 04:12:55;;;;;;;23.30;13.10;;;2.50;99.90;;;;;;5041623;28;20206;-73
2023/01/27 04:15:41;;;;;;;20.35;12.48;;;2.50;99.90;;;;;;5042109;28;20201;-73
2023/01/27 04:18:26;;;;;;;22.60;13.05;;;2.50;99.90;;;;;;5046996;28;20330;-73
2023/01/27 04:21:13;;;;;;;22.45;12.55;;;2.50;99.90;;;;;;5052422;28;20200;-73
2023/01/27 04:24:00;;;;;;;19.58;10.50;;;2.50;99.90;;;;;;5047707;28;20311;-72
2023/01/27 04:26:46;;;;;;;19.92;10.80;;;2.40;99.90;;;;;;5051081;28;20574;-73
2023/01/27 04:29:34;;;;;;;16.67;10.15;;;2.50;99.90;;;;;;5043676;28;20247;-73
2023/01/27 04:32:20;;;;;;;17.30;11.00;;;2.60;99.90;;;;;;5049966;28;20217;-74
2023/01/27 04:35:06;;;;;;;18.33;11.07;;;2.60;99.90;;;;;;5051730;28;20213;-73
2023/01/27 04:37:52;;;;;;;21.40;11.70;;;2.50;99.90;;;;;;5052778;28;20686;-73
2023/01/27 04:40:39;;;;;;;20.55;10.32;;;2.60;99.90;;;;;;5049820;28;20204;-73
2023/01/27 04:43:25;;;;;;;20.80;11.43;;;2.60;99.90;;;;;;5051204;28;20418;-74
2023/01/27 04:46:10;;;;;;;21.70;12.07;;;2.70;99.90;;;;;;5051556;28;20209;-74
2023/01/27 04:48:56;;;;;;;19.73;11.07;;;2.60;99.90;;;;;;5041320;28;20585;-74
2023/01/27 04:51:42;;;;;;;21.77;12.82;;;2.60;99.90;;;;;;5046332;28;20209;-73
2023/01/27 04:54:27;;;;;;;15.25;10.40;;;2.70;99.90;;;;;;5046363;28;20347;-73
2023/01/27 04:57:14;;;;;;;21.10;10.85;;;2.70;99.90;;;;;;5047594;28;20693;-73
2023/01/27 04:59:59;;;;;;;21.92;12.00;;;2.70;99.90;;;;;;5046536;28;20339;-73
2023/01/27 05:02:45;;;;;;;19.50;9.93;;;2.60;99.90;;;;;;5046087;28;20295;-72
2023/01/27 05:05:31;;;;;;;15.30;10.40;;;2.60;99.90;;;;;;5050659;28;20601;-72
2023/01/27 05:08:17;;;;;;;21.98;12.70;;;2.70;99.90;;;;;;5045375;28;20263;-73
2023/01/27 05:11:02;;;;;;;24.90;12.70;;;2.80;99.90;;;;;;5047672;28;20212;-73
2023/01/27 05:13:50;;;;;;;26.65;12.93;;;2.70;99.90;;;;;;5048210;28;20205;-73
2023/01/27 05:16:38;;;;;;;20.15;12.77;;;2.70;99.90;;;;;;5047135;28;20579;-73
2023/01/27 05:19:24;;;;;;;24.33;12.55;;;2.70;99.90;;;;;;5041676;28;20718;-73
2023/01/27 05:22:10;;;;;;;25.65;13.07;;;2.70;99.90;;;;;;5047512;28;20694;-73
2023/01/27 05:24:55;;;;;;;24.48;14.65;;;2.70;99.90;;;;;;5046844;28;20212;-73
2023/01/27 05:27:41;;;;;;;22.67;13.05;;;2.70;99.90;;;;;;5043858;28;20233;-73
2023/01/27 05:30:28;;;;;;;23.70;13.95;;;2.80;99.90;;;;;;5053535;28;20228;-73
2023/01/27 05:33:14;;;;;;;22.05;14.13;;;2.80;99.90;;;;;;5050628;28;20197;-73
2023/01/27 05:36:01;;;;;;;19.50;13.43;;;2.70;99.90;;;;;;5047306;28;20344;-73
2023/01/27 05:38:46;;;;;;;27.50;15.35;;;2.60;99.90;;;;;;5041516;28;20226;-73
2023/01/27 05:41:33;;;;;;;22.67;13.50;;;2.60;99.90;;;;;;5054686;28;20206;-74
2023/01/27 05:44:19;;;;;;;24.48;15.45;;;2.80;99.90;;;;;;5049088;28;20224;-73
2023/01/27 05:47:06;;;;;;;31.23;17.08;;;2.80;99.90;;;;;;5046484;28;20212;-73
2023/01/27 05:49:52;;;;;;;29.65;17.45;;;2.70;99.90;;;;;;5041142;28;20233;-73
2023/01/27 05:52:38;;;;;;;27.98;16.88;;;2.80;99.90;;;;;;5050985;28;20217;-73
2023/01/27 05:55:23;;;;;;;27.15;15.70;;;2.90;99.90;;;;;;5045487;28;20343;-72
2023/01/27 05:58:09;;;;;;;26.83;16.00;;;2.80;99.90;;;;;;5044956;28;20205;-73
2023/01/27 06:00:55;;;;;;;25.27;14.18;;;2.90;99.90;;;;;;5042610;28;20206;-73
2023/01/27 06:03:43;;;;;;;26.23;14.77;;;2.80;99.90;;;;;;5042890;28;20227;-73
2023/01/27 06:06:30;;;;;;;27.25;14.77;;;2.90;99.90;;;;;;5042068;28;20206;-73
2023/01/27 06:09:16;;;;;;;24.30;14.27;;;2.90;99.90;;;;;;5045239;28;20233;-73
2023/01/27 06:12:02;;;;;;;26.67;14.40;;;2.90;99.90;;;;;;5048860;28;20794;-73
2023/01/27 06:14:47;;;;;;;20.92;12.75;;;3.00;99.90;;;;;;5045499;28;20681;-73
2023/01/27 06:17:33;;;;;;;27.17;12.88;;;2.90;99.90;;;;;;5045097;28;20316;-73
2023/01/27 06:20:20;;;;;;;22.33;12.52;;;2.90;99.90;;;;;;5049341;28;20714;-73
2023/01/27 06:23:06;;;;;;;20.60;12.25;;;2.80;99.90;;;;;;5047433;28;20240;-73
2023/01/27 06:25:52;;;;;;;27.15;13.85;;;2.80;99.90;;;;;;5043105;28;20581;-73
2023/01/27 06:28:39;;;;;;;24.80;12.80;;;2.80;99.90;;;;;;5043681;28;20582;-74
2023/01/27 06:31:26;;;;;;;21.88;12.80;;;2.90;99.90;;;;;;5049638;28;20208;-73
2023/01/27 06:34:12;;;;;;;20.85;13.00;;;2.90;99.90;;;;;;5049639;28;21019;-73
2023/01/27 06:36:59;;;;;;;26.92;13.18;;;2.90;99.90;;;;;;5043259;28;20674;-73
2023/01/27 06:39:44;;;;;;;26.60;15.75;;;2.90;99.90;;;;;;5046062;28;20229;-73
2023/01/27 06:42:30;;;;;;;27.02;15.80;;;2.90;99.90;;;;;;5051652;28;20212;-73
2023/01/27 06:45:15;;;;;;;22.33;13.02;;;3.00;99.90;;;;;;5044468;28;20272;-74
2023/01/27 06:48:02;;;;;;;25.73;13.55;;;3.00;99.90;;;;;;5045799;28;20294;-73
2023/01/27 06:50:48;;;;;;;23.08;13.73;;;2.90;99.90;;;;;;5042480;28;20247;-73
2023/01/27 06:53:36;;;;;;;24.42;14.68;;;2.80;99.90;;;;;;5050319;28;20344;-73
2023/01/27 06:56:21;;;;;;;32.42;18.92;;;2.80;99.90;;;;;;5048151;28;20205;-73
2023/01/27 06:59:07;;;;;;;25.55;14.68;;;2.80;99.90;;;;;;5044559;28;20307;-73
2023/01/27 07:01:52;;;;;;;23.33;14.68;;;2.70;99.90;;;;;;5048369;28;20709;-74
2023/01/27 07:04:38;;;;;;;26.42;15.43;;;2.70;99.90;;;;;;5042715;28;20222;-74
2023/01/27 07:07:24;;;;;;;25.58;15.45;;;2.70;99.90;;;;;;5040198;28;20205;-73
2023/01/27 07:10:11;;;;;;;23.85;15.88;;;2.60;99.90;;;;;;5039088;28;20232;-72
2023/01/27 07:13:05;;;;;;;25.20;14.07;;;2.60;99.90;;;;;;5039301;28;20208;-73
2023/01/27 07:15:55;;;;;;;26.95;13.82;;;2.60;99.90;;;;;;5040353;28;20213;-73
2023/01/27 07:18:40;;;;;;;25.48;14.93;;;2.60;99.90;;;;;;5044556;28;20348;-73
2023/01/27 07:21:26;;;;;;;22.27;13.57;;;2.60;99.90;;;;;;5046894;28;20737;-73
2023/01/27 07:24:12;;;;;;;22.50;14.25;;;2.60;99.90;;;;;;5044605;28;20232;-73
2023/01/27 07:26:59;;;;;;;18.52;12.35;;;2.70;99.90;;;;;;5040329;28;20200;-73
2023/01/27 07:29:44;;;;;;;25.15;14.93;;;2.70;99.90;;;;;;5049314;28;20306;-73
2023/01/27 07:32:30;;;;;;;23.58;15.35;;;2.70;99.90;;;;;;5040404;28;20257;-73
2023/01/27 07:35:16;;;;;;;25.42;14.48;;;2.60;99.90;;;;;;5045150;28;20209;-73
2023/01/27 07:38:02;;;;;;;25.58;14.15;;;2.70;99.90;;;;;;5044415;28;20213;-74
2023/01/27 07:40:48;;;;;;;23.65;14.73;;;2.70;99.90;;;;;;5048455;28;20668;-73
2023/01/27 07:43:35;;;;;;;20.13;13.32;;;2.80;99.90;;;;;;5045935;28;20354;-73
2023/01/27 07:46:21;;;;;;;27.20;14.27;;;2.80;99.90;;;;;;5043997;28;20247;-73
2023/01/27 07:49:07;;;;;;;25.50;14.93;;;2.90;99.90;;;;;;5042921;28;20229;-73
2023/01/27 07:51:53;;;;;;;21.75;12.38;;;3.00;99.90;;;;;;5043385;28;20234;-73
2023/01/27 07:54:39;;;;;;;21.00;12.65;;;2.90;99.90;;;;;;5039528;28;20770;-73
2023/01/27 07:57:24;;;;;;;19.65;12.80;;;3.00;99.90;;;;;;5043821;28;20208;-73
2023/01/27 08:00:14;;;;;;;26.63;15.65;;;3.10;99.90;;;;;;5045216;28;20225;-73
2023/01/27 08:03:01;;;;;;;26.77;14.50;;;3.00;99.90;;;;;;5044777;28;21224;-73
2023/01/27 08:05:46;;;;;;;20.20;12.60;;;3.00;99.90;;;;;;5039659;28;20583;-73
2023/01/27 08:08:32;;;;;;;22.05;13.68;;;3.10;99.90;;;;;;5039622;28;20225;-73
2023/01/27 08:11:18;;;;;;;28.23;16.42;;;3.10;99.90;;;;;;5043655;28;20221;-72
2023/01/27 08:14:04;;;;;;;25.92;14.98;;;3.10;99.90;;;;;;5048392;28;20256;-73
2023/01/27 08:16:51;;;;;;;25.65;15.23;;;3.10;99.90;;;;;;5043760;28;20201;-73
2023/01/27 08:19:36;;;;;;;22.95;12.75;;;3.10;99.90;;;;;;5044155;28;20352;-73
2023/01/27 08:22:22;;;;;;;16.80;11.60;;;3.00;99.90;;;;;;5039414;28;20213;-73
2023/01/27 08:25:08;;;;;;;23.23;12.25;;;2.90;99.90;;;;;;5047735;28;20209;-73
2023/01/27 08:27:56;;;;;;;21.80;12.75;;;3.10;99.90;;;;;;5047715;28;20248;-73
2023/01/27 08:30:41;;;;;;;22.42;13.85;;;3.10;99.90;;;;;;5038996;28;20212;-73
2023/01/27 08:33:29;;;;;;;24.98;14.40;;;3.30;99.90;;;;;;5045570;28;20209;-73
2023/01/27 08:36:16;;;;;;;25.75;14.38;;;3.30;99.90;;;;;;5037647;28;20347;-73
2023/01/27 08:39:01;;;;;;;25.42;14.63;;;3.30;99.90;;;;;;5049207;28;20229;-73
2023/01/27 08:41:47;;;;;;;24.77;15.95;;;3.30;99.90;;;;;;5039995;28;20287;-74
2023/01/27 08:44:33;;;;;;;21.40;12.10;;;3.40;99.90;;;;;;5044350;28;20641;-73
2023/01/27 08:47:18;;;;;;;16.15;12.32;;;3.40;99.90;;;;;;5043338;28;20589;-73
2023/01/27 08:50:06;;;;;;;20.65;11.93;;;3.40;99.90;;;;;;5049846;28;20347;-74
2023/01/27 08:52:52;;;;;;;24.67;13.73;;;3.40;99.90;;;;;;5049283;28;20344;-73
2023/01/27 08:55:37;;;;;;;24.38;12.00;;;3.50;99.90;;;;;;5047547;28;20259;-74
2023/01/27 08:58:24;;;;;;;20.33;11.52;;;3.40;99.90;;;;;;5038196;28;20205;-73
2023/01/27 09:01:10;;;;;;;17.70;11.05;;;3.40;99.90;;;;;;5053269;28;20693;-74
2023/01/27 09:03:55;;;;;;;19.80;12.05;;;3.40;99.90;;;;;;5043501;28;20702;-73
2023/01/27 09:06:43;;;;;;;20.13;11.80;;;3.40;99.90;;;;;;5047737;28;20282;-74
2023/01/27 09:09:28;;;;;;;21.88;12.15;;;3.40;99.90;;;;;;5037663;28;20295;-73
2023/01/27 09:12:14;;;;;;;21.92;12.32;;;3.50;99.90;;;;;;5047545;28;20675;-73
2023/01/27 09:15:00;;;;;;;15.55;10.57;;;3.50;99.90;;;;;;5040081;28;20200;-73
2023/01/27 09:17:46;;;;;;;14.40;9.10;;;3.50;99.90;;;;;;5045837;28;20251;-73
2023/01/27 09:20:33;;;;;;;15.80;9.23;;;3.50;99.90;;;;;;5044129;28;20228;-72
2023/01/27 09:23:20;;;;;;;14.63;8.73;;;3.50;99.90;;;;;;5042897;28;20256;-73
2023/01/27 09:26:05;;;;;;;17.58;10.13;;;3.50;99.90;;;;;;5045178;28;20236;-73
2023/01/27 09:28:51;;;;;;;18.40;9.90;;;3.50;99.90;;;;;;5060977;22;20730;-72
2023/01/27 09:31:37;;;;;;;13.80;9.38;;;3.50;99.90;;;;;;5030874;28;20214;-74
2023/01/27 09:34:22;;;;;;;17.20;10.40;;;3.50;99.90;;;;;;5020992;28;20490;-73
2023/01/27 09:37:10;;;;;;;16.80;10.07;;;3.50;99.90;;;;;;5025690;28;20209;-73
2023/01/27 09:40:02;;;;;;;16.42;10.30;;;3.40;99.90;;;;;;5022320;28;20256;-73
2023/01/27 09:43:16;;;;;;;14.85;9.90;;;3.50;99.90;;;;;;5032417;28;20213;-74
2023/01/27 09:46:33;;;;;;;21.98;11.20;;;3.60;99.90;;;;;;5031261;28;20295;-74
2023/01/27 09:49:39;;;;;;;15.45;10.70;;;3.60;99.90;;;;;;5029851;28;20249;-74
2023/01/27 09:52:50;;;;;;;16.70;10.25;;;3.60;99.90;;;;;;5023318;28;20205;-74
2023/01/27 09:55:44;;;;;;;19.95;12.40;;;3.50;99.90;;;;;;5028937;28;20201;-74
2023/01/27 09:58:40;;;;;;;18.02;10.35;;;3.60;99.90;;;;;;5028801;28;20201;-74
2023/01/27 10:01:36;;;;;;;20.33;11.70;;;3.60;99.90;;;;;;5029912;28;20758;-73
2023/01/27 10:04:45;;;;;;;18.23;10.82;;;3.60;99.90;;;;;;5028744;28;20220;-73
2023/01/27 10:07:46;;;;;;;18.40;11.77;;;3.50;99.90;;;;;;5027810;28;20228;-74
2023/01/27 10:10:56;;;;;;;15.23;9.95;;;3.50;99.90;;;;;;5031914;28;20280;-73
2023/01/27 10:13:55;;;;;;;17.90;9.77;;;3.50;99.90;;;;;;5026164;28;20209;-73
2023/01/27 10:17:07;;;;;;;22.63;11.20;;;3.70;99.90;;;;;;5027051;28;20205;-73
2023/01/27 10:20:12;;;;;;;15.65;9.95;;;3.70;99.90;;;;;;5026655;28;20295;-73
2023/01/27 10:23:09;;;;;;;15.82;10.05;;;3.80;99.90;;;;;;5023669;28;20209;-73
2023/01/27 10:26:08;;;;;;;17.73;10.85;;;3.90;99.90;;;;;;5026407;28;20229;-73
2023/01/27 10:29:00;;;;;;;13.82;8.98;;;3.90;99.90;;;;;;5025733;28;20690;-74
2023/01/27 10:31:52;;;;;;;16.20;9.75;;;3.90;99.90;;;;;;5023910;28;20312;-73
2023/01/27 10:34:45;;;;;;;16.48;10.18;;;3.80;99.90;;;;;;5029023;28;20378;-73
2023/01/27 10:37:42;;;;;;;14.38;9.43;;;3.80;99.90;;;;;;5030405;28;20205;-73
2023/01/27 10:40:37;;;;;;;15.20;8.80;;;3.90;99.90;;;;;;5030161;28;20233;-73
2023/01/27 10:43:30;;;;;;;11.70;8.35;;;3.90;99.90;;;;;;5026403;28;20208;-73
2023/01/27 10:46:24;;;;;;;13.48;8.70;;;3.90;99.90;;;;;;5031523;28;20221;-73
2023/01/27 10:49:21;;;;;;;14.32;8.70;;;4.00;99.90;;;;;;5030298;28;20603;-73
2023/01/27 10:52:13;;;;;;;13.80;8.90;;;4.00;99.90;;;;;;5020518;28;20534;-73
2023/01/27 10:55:04;;;;;;;16.35;9.52;;;3.90;99.90;;;;;;5025958;28;20193;-73
2023/01/27 10:57:56;;;;;;;11.98;7.60;;;4.00;99.90;;;;;;5026852;28;20368;-73
2023/01/27 11:00:47;;;;;;;20.05;13.25;;;4.00;99.90;;;;;;5024827;28;20287;-73
2023/01/27 11:03:39;;;;;;;12.90;8.82;;;3.90;99.90;;;;;;5024213;28;20217;-73
2023/01/27 11:06:29;;;;;;;14.48;9.05;;;4.00;99.90;;;;;;5024891;28;20210;-73
2023/01/27 11:09:24;;;;;;;13.32;8.07;;;4.10;99.90;;;;;;5026053;28;20901;-73
2023/01/27 11:12:13;;;;;;;12.25;8.40;;;4.10;99.90;;;;;;5024745;28;20213;-73
2023/01/27 11:15:01;;;;;;;12.60;9.30;;;4.00;99.90;;;;;;5029608;28;20662;-71
2023/01/27 11:17:53;;;;;;;18.73;11.73;;;4.10;99.90;;;;;;5019393;28;20324;-74
2023/01/27 11:20:42;;;;;;;15.20;9.18;;;4.10;99.90;;;;;;5026891;28;20287;-74
2023/01/27 11:23:31;;;;;;;16.75;12.15;;;4.00;99.90;;;;;;5023678;28;20685;-73
2023/01/27 11:26:32;;;;;;;12.00;7.88;;;4.00;99.90;;;;;;5025084;28;20249;-74
2023/01/27 11:29:26;;;;;;;10.40;7.00;;;4.00;99.90;;;;;;5021886;28;20310;-74
2023/01/27 11:32:23;;;;;;;11.02;7.53;;;4.00;99.90;;;;;;5025510;28;20201;-73
2023/01/27 11:35:12;;;;;;;9.07;6.15;;;3.90;99.90;;;;;;5025760;28;20384;-73
2023/01/27 11:37:57;;;;;;;10.90;7.22;;;4.00;99.90;;;;;;5029347;28;20221;-74
2023/01/27 11:40:45;;;;;;;11.20;6.90;;;4.00;99.90;;;;;;5028984;28;20718;-73
2023/01/27 11:43:33;;;;;;;9.23;6.88;;;4.00;99.90;;;;;;5024297;28;20284;-74
2023/01/27 11:46:22;;;;;;;9.60;5.43;;;4.00;99.90;;;;;;5028360;28;20233;-73
2023/01/27 11:49:09;;;;;;;10.02;6.20;;;4.10;99.90;;;;;;5025877;28;20269;-73
2023/01/27 11:52:04;;;;;;;10.48;7.43;;;4.10;99.90;;;;;;5017545;28;20206;-73
2023/01/27 11:54:55;;;;;;;7.25;5.53;;;4.10;99.90;;;;;;5022712;28;20298;-72
2023/01/27 11:57:43;;;;;;;9.65;5.80;;;4.10;99.90;;;;;;5024527;28;20197;-73
2023/01/27 12:00:37;;;;;;;17.15;6.50;;;4.10;99.90;;;;;;5026547;28;20818;-74
2023/01/27 12:03:30;;;;;;;10.13;6.13;;;4.20;99.90;;;;;;5024417;28;20333;-73
2023/01/27 12:06:21;;;;;;;7.13;5.50;;;4.30;99.90;;;;;;5024322;28;20233;-73
2023/01/27 12:09:32;;;;;;;8.05;5.35;;;4.30;99.90;;;;;;5025794;28;20229;-73
2023/01/27 12:12:23;;;;;;;8.70;6.35;;;4.30;99.90;;;;;;5020051;28;20598;-73
2023/01/27 12:15:15;;;;;;;9.82;5.45;;;4.20;99.90;;;;;;5027212;28;20198;-73
2023/01/27 12:18:04;;;;;;;8.27;5.90;;;4.10;99.90;;;;;;5025172;28;20205;-73
2023/01/27 12:20:59;;;;;;;6.22;4.72;;;4.10;99.90;;;;;;5023708;28;20238;-73
2023/01/27 12:23:49;;;;;;;7.90;5.10;;;4.20;99.90;;;;;;5022939;28;20762;-75
2023/01/27 12:26:38;;;;;;;10.07;7.85;;;4.20;99.90;;;;;;5027473;28;20874;-74
2023/01/27 12:29:28;;;;;;;9.32;6.65;;;4.20;99.90;;;;;;5026350;28;20254;-73
2023/01/27 12:32:17;;;;;;;10.23;5.55;;;4.20;99.90;;;;;;5020442;28;20341;-73
2023/01/27 12:35:03;;;;;;;8.90;5.70;;;4.30;99.90;;;;;;5025800;28;20686;-73
2023/01/27 12:37:54;;;;;;;15.65;9.27;;;4.30;99.90;;;;;;5024108;28;20202;-73
2023/01/27 12:40:43;;;;;;;8.73;5.80;;;4.20;99.90;;;;;;5027933;28;20229;-73
2023/01/27 12:43:30;;;;;;;14.77;12.75;;;4.20;99.90;;;;;;5029367;28;20210;-73
2023/01/27 12:46:21;;;;;;;14.43;12.55;;;4.30;99.90;;;;;;5031734;28;20229;-73
2023/01/27 12:49:12;;;;;;;9.25;6.43;;;4.30;99.90;;;;;;5024581;28;20292;-74
2023/01/27 12:52:01;;;;;;;11.10;9.18;;;4.30;99.90;;;;;;5028732;28;20245;-73
2023/01/27 12:54:50;;;;;;;7.28;5.20;;;4.40;99.90;;;;;;5032114;28;20217;-73
2023/01/27 12:57:35;;;;;;;7.95;4.90;;;4.40;99.90;;;;;;5028901;28;20201;-73
2023/01/27 13:00:24;;;;;;;8.00;5.32;;;4.40;99.90;;;;;;5026842;28;20311;-73
2023/01/27 13:03:12;;;;;;;7.50;5.30;;;4.40;99.90;;;;;;5028464;28;20205;-74
2023/01/27 13:05:59;;;;;;;8.40;5.32;;;4.40;99.90;;;;;;5026138;28;20228;-73
2023/01/27 13:08:47;;;;;;;7.70;5.07;;;4.40;99.90;;;;;;5030825;28;20260;-73
2023/01/27 13:11:39;;;;;;;11.88;6.65;;;4.30;99.90;;;;;;5026699;28;20205;-74
2023/01/27 13:14:28;;;;;;;6.07;4.68;;;4.30;99.90;;;;;;5029574;28;20625;-74
2023/01/27 13:17:41;;;;;;;9.57;6.47;;;4.30;99.90;;;;;;5028852;28;20269;-74
2023/01/27 13:20:29;;;;;;;8.85;5.13;;;4.40;99.90;;;;;;5025974;28;20226;-74
2023/01/27 13:23:19;;;;;;;8.88;4.90;;;4.60;99.90;;;;;;5029075;28;20209;-74
2023/01/27 13:26:13;;;;;;;8.45;5.30;;;5.10;99.90;;;;;;5030940;28;20235;-73
2023/01/27 13:29:06;;;;;;;7.65;5.30;;;5.20;99.90;;;;;;5031989;28;20894;-73
2023/01/27 13:31:56;;;;;;;5.68;4.03;;;5.50;99.90;;;;;;5033147;28;20314;-73
2023/01/27 13:34:47;;;;;;;8.93;5.00;;;5.40;99.90;;;;;;5031328;28;20205;-73
2023/01/27 13:37:35;;;;;;;7.53;4.88;;;5.40;99.90;;;;;;5030244;28;20201;-74
2023/01/27 13:40:28;;;;;;;6.57;4.07;;;5.30;99.90;;;;;;5023537;28;20348;-73
2023/01/27 13:43:19;;;;;;;7.35;5.65;;;5.30;99.90;;;;;;5029394;28;20202;-73
2023/01/27 13:46:11;;;;;;;7.22;5.30;;;5.30;99.90;;;;;;5027182;28;20234;-74
2023/01/27 13:49:00;;;;;;;6.63;4.15;;;5.30;99.90;;;;;;5030314;28;20256;-73
2023/01/27 13:51:47;;;;;;;5.28;4.18;;;5.30;99.90;;;;;;5028626;28;20590;-73
2023/01/27 13:54:33;;;;;;;8.52;4.85;;;5.30;99.90;;;;;;5029119;28;20225;-74
2023/01/27 13:57:37;;;;;;;7.85;5.10;;;5.30;99.90;;;;;;5029599;28;20285;-73
2023/01/27 14:00:27;;;;;;;7.45;4.20;;;5.30;99.90;;;;;;5021580;28;20226;-73
2023/01/27 14:03:47;;;;;;;5.10;3.80;;;5.20;99.90;;;;;;5027377;28;20205;-73
2023/01/27 14:06:55;;;;;;;7.35;5.93;;;5.20;99.90;;;;;;5029938;28;20229;-74
2023/01/27 14:09:56;;;;;;;7.10;3.85;;;5.20;99.90;;;;;;5027041;28;20222;-73
2023/01/27 14:12:57;;;;;;;5.35;3.58;;;5.20;99.90;;;;;;5030405;28;20205;-74
2023/01/27 14:15:50;;;;;;;7.63;4.05;;;5.20;99.90;;;;;;5028618;28;20686;-74
2023/01/27 14:18:41;;;;;;;5.68;3.92;;;5.20;99.90;;;;;;5028394;28;20778;-73
2023/01/27 14:21:38;;;;;;;7.60;4.90;;;5.20;99.90;;;;;;5027127;28;20202;-73
2023/01/27 14:24:36;;;;;;;7.05;4.00;;;5.20;99.90;;;;;;5028960;28;20209;-74
2023/01/27 14:27:28;;;;;;;5.88;4.32;;;5.10;99.90;;;;;;5028397;28;20226;-73
2023/01/27 14:30:22;;;;;;;5.63;4.10;;;5.10;99.90;;;;;;5021739;28;20237;-74
2023/01/27 14:33:17;;;;;;;10.85;5.25;;;5.00;99.90;;;;;;5029321;28;20576;-74
2023/01/27 14:36:12;;;;;;;5.10;3.85;;;5.00;99.90;;;;;;5026739;28;20206;-74
2023/01/27 14:39:10;;;;;;;6.53;4.57;;;5.00;99.90;;;;;;5024050;28;20590;-74
2023/01/27 14:42:06;;;;;;;6.78;4.45;;;4.90;99.90;;;;;;5028533;28;20201;-74
2023/01/27 14:44:58;;;;;;;6.30;4.13;;;4.80;99.90;;;;;;5027853;28;20201;-73
2023/01/27 14:47:51;;;;;;;7.88;5.40;;;4.80;99.90;;;;;;5026596;28;20940;-74
2023/01/27 14:50:43;;;;;;;6.75;4.15;;;4.80;99.90;;;;;;5028385;28;20718;-74
2023/01/27 14:53:45;;;;;;;6.13;3.60;;;4.80;99.90;;;;;;5033050;28;20690;-73
2023/01/27 14:56:43;;;;;;;5.28;3.78;;;4.80;99.90;;;;;;5024737;28;20337;-73
2023/01/27 14:59:36;;;;;;;5.10;3.90;;;4.80;99.90;;;;;;5025526;28;20296;-74
2023/01/27 15:02:41;;;;;;;7.85;4.97;;;4.90;99.90;;;;;;5027077;28;20564;-74